Time,TemperatureF,DewpointF,PressureIn,WindDirection,WindDirectionDegrees,WindSpeedMPH,WindSpeedGustMPH,Humidity,HourlyPrecipIn,Conditions,Clouds,dailyrainin,SoftwareType,DateUTC
2013-05-03 00:00:00,45.7,-4.0,24.39,West,269,0.0,0.0,12,0.00,,,0.00,WeatherTracker,2013-05-03 07:00:00,
2013-05-03 00:10:00,45.5,-4.1,24.39,NNW,344,0.0,0.0,12,0.00,,,0.00,WeatherTracker,2013-05-03 07:10:00,
2013-05-03 00:15:00,45.5,-4.1,24.39,WNW,296,0.0,0.0,12,0.00,,,0.00,WeatherTracker,2013-05-03 07:15:00,
2013-05-03 00:25:00,45.1,-4.4,24.39,ENE,66,0.0,0.0,12,0.00,,,0.00,WeatherTracker,2013-05-03 07:25:00,
2013-05-03 00:35:00,45.1,-4.4,24.39,North,353,0.0,0.0,12,0.00,,,0.00,WeatherTracker,2013-05-03 07:35:00,
2013-05-03 00:45:00,44.8,-4.7,24.39,WNW,288,0.0,0.0,12,0.00,,,0.00,WeatherTracker,2013-05-03 07:45:00,
2013-05-03 00:50:00,44.6,-4.8,24.39,NW,312,0.0,0.0,12,0.00,,,0.00,WeatherTracker,2013-05-03 07:50:00,
2013-05-03 01:00:00,44.2,-3.4,24.39,ENE,72,0.0,0.0,13,0.00,,,0.00,WeatherTracker,2013-05-03 08:00:00,
2013-05-03 01:05:00,44.2,-3.4,24.39,ENE,72,0.0,0.0,13,0.00,,,0.00,WeatherTracker,2013-05-03 08:05:00,
2013-05-03 01:10:00,44.1,-3.6,24.39,ENE,64,0.0,0.0,13,0.00,,,0.00,WeatherTracker,2013-05-03 08:10:00,
2013-05-03 01:20:00,43.7,-3.9,24.36,NW,308,0.0,0.0,13,0.00,,,0.00,WeatherTracker,2013-05-03 08:20:00,
2013-05-03 01:25:00,43.7,-3.9,24.36,NW,308,0.0,0.0,13,0.00,,,0.00,WeatherTracker,2013-05-03 08:25:00,
2013-05-03 01:35:00,43.5,-4.0,24.36,NW,308,0.0,0.0,13,0.00,,,0.00,WeatherTracker,2013-05-03 08:35:00,
2013-05-03 01:45:00,43.3,-4.2,24.36,NW,308,0.0,0.0,13,0.00,,,0.00,WeatherTracker,2013-05-03 08:45:00,
2013-05-03 01:50:00,43.2,-4.3,24.36,NW,308,0.0,0.0,13,0.00,,,0.00,WeatherTracker,2013-05-03 08:50:00,
2013-05-03 02:00:00,43.0,-4.4,24.36,NW,308,0.0,0.0,13,0.00,,,0.00,WeatherTracker,2013-05-03 09:00:00,
2013-05-03 02:10:00,42.4,-4.9,24.36,NW,308,0.0,0.0,13,0.00,,,0.00,WeatherTracker,2013-05-03 09:10:00,
2013-05-03 02:20:00,41.5,-5.6,24.36,NW,308,0.0,0.0,13,0.00,,,0.00,WeatherTracker,2013-05-03 09:20:00,
2013-05-03 02:30:00,40.5,-6.5,24.36,NW,308,0.0,0.0,13,0.00,,,0.00,WeatherTracker,2013-05-03 09:30:00,
2013-05-03 02:35:00,39.9,-6.9,24.36,NW,308,0.0,0.0,13,0.00,,,0.00,WeatherTracker,2013-05-03 09:35:00,
2013-05-03 02:40:00,39.6,-7.2,24.36,NW,308,0.0,0.0,13,0.00,,,0.00,WeatherTracker,2013-05-03 09:40:00,
2013-05-03 02:45:00,38.8,-6.2,24.36,NW,308,0.0,0.0,14,0.00,,,0.00,WeatherTracker,2013-05-03 09:45:00,
2013-05-03 02:55:00,37.8,-7.1,24.36,NW,314,0.0,0.0,14,0.00,,,0.00,WeatherTracker,2013-05-03 09:55:00,
2013-05-03 03:05:00,36.5,-8.1,24.36,NW,313,0.0,0.0,14,0.00,,,0.00,WeatherTracker,2013-05-03 10:05:00,
2013-05-03 03:10:00,36.1,-8.4,24.36,NW,314,0.0,0.0,14,0.00,,,0.00,WeatherTracker,2013-05-03 10:10:00,
2013-05-03 03:20:00,35.6,-8.8,24.36,NW,314,0.0,0.0,14,0.00,,,0.00,WeatherTracker,2013-05-03 10:20:00,
2013-05-03 03:25:00,35.6,-8.8,24.36,NW,314,0.0,0.0,14,0.00,,,0.00,WeatherTracker,2013-05-03 10:25:00,
2013-05-03 03:30:00,35.6,-8.8,24.33,NW,314,0.0,0.0,14,0.00,,,0.00,WeatherTracker,2013-05-03 10:30:00,
2013-05-03 03:35:00,35.6,-8.8,24.33,NW,314,0.0,0.0,14,0.00,,,0.00,WeatherTracker,2013-05-03 10:35:00,
2013-05-03 03:40:00,35.8,-8.7,24.33,NW,314,0.0,0.0,14,0.00,,,0.00,WeatherTracker,2013-05-03 10:40:00,
2013-05-03 03:50:00,34.9,-8.0,24.33,NW,314,0.0,0.0,15,0.00,,,0.00,WeatherTracker,2013-05-03 10:50:00,
2013-05-03 03:55:00,34.9,-8.0,24.33,NW,313,0.0,0.0,15,0.00,,,0.00,WeatherTracker,2013-05-03 10:55:00,
2013-05-03 04:05:00,34.2,-8.6,24.33,NW,313,0.0,0.0,15,0.00,,,0.00,WeatherTracker,2013-05-03 11:05:00,
2013-05-03 04:15:00,33.6,-9.0,24.33,NW,313,0.0,0.0,15,0.00,,,0.00,WeatherTracker,2013-05-03 11:15:00,
2013-05-03 04:20:00,33.1,-9.5,24.33,NW,313,0.0,0.0,15,0.00,,,0.00,WeatherTracker,2013-05-03 11:20:00,
2013-05-03 04:30:00,33.4,-9.2,24.33,NW,313,0.0,0.0,15,0.00,,,0.00,WeatherTracker,2013-05-03 11:30:00,
2013-05-03 04:40:00,33.1,-9.5,24.33,NW,313,0.0,0.0,15,0.00,,,0.00,WeatherTracker,2013-05-03 11:40:00,
2013-05-03 04:45:00,33.1,-9.5,24.33,NW,313,0.0,0.0,15,0.00,,,0.00,WeatherTracker,2013-05-03 11:45:00,
2013-05-03 04:55:00,32.5,-9.9,24.33,NW,314,0.0,0.0,15,0.00,,,0.00,WeatherTracker,2013-05-03 11:55:00,
2013-05-03 05:00:00,32.5,-9.9,24.33,NW,314,0.0,0.0,15,0.00,,,0.00,WeatherTracker,2013-05-03 12:00:00,
2013-05-03 05:05:00,32.2,-10.2,24.33,NW,314,0.0,0.0,15,0.00,,,0.00,WeatherTracker,2013-05-03 12:05:00,
2013-05-03 05:15:00,32.2,-10.2,24.33,NW,313,0.0,0.0,15,0.00,,,0.00,WeatherTracker,2013-05-03 12:15:00,
2013-05-03 05:20:00,31.3,-10.9,24.33,NW,314,0.0,0.0,15,0.00,,,0.00,WeatherTracker,2013-05-03 12:20:00,
2013-05-03 05:25:00,31.3,-10.9,24.33,WNW,302,0.0,0.0,15,0.00,,,0.00,WeatherTracker,2013-05-03 12:25:00,
2013-05-03 05:35:00,31.1,-11.1,24.33,WNW,302,0.0,0.0,15,0.00,,,0.00,WeatherTracker,2013-05-03 12:35:00,
2013-05-03 05:40:00,31.5,-10.8,24.33,WNW,302,0.0,0.0,15,0.00,,,0.00,WeatherTracker,2013-05-03 12:40:00,
2013-05-03 05:50:00,31.8,-10.5,24.33,WNW,302,0.0,0.0,15,0.00,,,0.00,WeatherTracker,2013-05-03 12:50:00,
2013-05-03 05:55:00,31.3,-10.9,24.33,WNW,302,0.0,0.0,15,0.00,,,0.00,WeatherTracker,2013-05-03 12:55:00,
2013-05-03 06:05:00,30.6,-11.5,24.33,WNW,302,0.0,0.0,15,0.00,,,0.00,WeatherTracker,2013-05-03 13:05:00,
2013-05-03 06:15:00,31.3,-10.9,24.33,WNW,301,0.0,0.0,15,0.00,,,0.00,WeatherTracker,2013-05-03 13:15:00,
2013-05-03 06:25:00,30.9,-11.2,24.33,WNW,301,0.0,0.0,15,0.00,,,0.00,WeatherTracker,2013-05-03 13:25:00,
2013-05-03 06:35:00,31.3,-10.9,24.33,WNW,302,0.0,0.0,15,0.00,,,0.00,WeatherTracker,2013-05-03 13:35:00,
2013-05-03 06:40:00,32.0,-10.4,24.33,WNW,301,0.0,0.0,15,0.00,,,0.00,WeatherTracker,2013-05-03 13:40:00,
2013-05-03 06:50:00,32.7,-9.8,24.33,WNW,302,0.0,0.0,15,0.00,,,0.00,WeatherTracker,2013-05-03 13:50:00,
2013-05-03 06:55:00,33.1,-9.5,24.33,WNW,302,0.0,0.0,15,0.00,,,0.00,WeatherTracker,2013-05-03 13:55:00,
2013-05-03 07:00:00,33.8,-8.9,24.33,WNW,301,0.0,0.0,15,0.00,,,0.00,WeatherTracker,2013-05-03 14:00:00,
2013-05-03 07:10:00,34.9,-8.0,24.33,WNW,301,0.0,0.0,15,0.00,,,0.00,WeatherTracker,2013-05-03 14:10:00,
2013-05-03 07:20:00,37.9,-7.0,24.33,ENE,69,0.0,0.0,14,0.00,,,0.00,WeatherTracker,2013-05-03 14:20:00,
2013-05-03 07:25:00,39.2,-7.5,24.33,NE,49,0.0,0.0,13,0.00,,,0.00,WeatherTracker,2013-05-03 14:25:00,
2013-05-03 07:30:00,40.5,-6.5,24.33,NNW,342,0.0,0.0,13,0.00,,,0.00,WeatherTracker,2013-05-03 14:30:00,
2013-05-03 07:35:00,41.7,-5.5,24.33,North,1,0.0,0.0,13,0.00,,,0.00,WeatherTracker,2013-05-03 14:35:00,
2013-05-03 07:45:00,43.9,-3.7,24.33,South,184,0.0,3.0,13,0.00,,,0.00,WeatherTracker,2013-05-03 14:45:00,
2013-05-03 07:55:00,46.0,-3.7,24.33,NE,36,0.0,0.0,12,0.00,,,0.00,WeatherTracker,2013-05-03 14:55:00,
2013-05-03 08:00:00,46.8,-3.1,24.33,SE,124,0.0,0.0,12,0.00,,,0.00,WeatherTracker,2013-05-03 15:00:00,
2013-05-03 08:10:00,47.3,-2.7,24.33,SSE,162,0.0,0.0,12,0.00,,,0.00,WeatherTracker,2013-05-03 15:10:00,
2013-05-03 08:15:00,47.8,-2.3,24.33,North,6,0.0,0.0,12,0.00,,,0.00,WeatherTracker,2013-05-03 15:15:00,
2013-05-03 08:25:00,48.7,-3.4,24.33,SSE,162,0.0,0.0,11,0.00,,,0.00,WeatherTracker,2013-05-03 15:25:00,
2013-05-03 08:35:00,49.6,-2.7,24.33,SE,143,0.0,0.0,11,0.00,,,0.00,WeatherTracker,2013-05-03 15:35:00,
2013-05-03 08:40:00,50.0,-2.4,24.33,East,94,0.0,0.0,11,0.00,,,0.00,WeatherTracker,2013-05-03 15:40:00,
2013-05-03 08:45:00,50.4,-2.1,24.30,North,353,0.0,0.0,11,0.00,,,0.00,WeatherTracker,2013-05-03 15:45:00,
2013-05-03 08:50:00,50.9,-1.7,24.30,SSE,147,0.0,0.0,11,0.00,,,0.00,WeatherTracker,2013-05-03 15:50:00,
2013-05-03 09:00:00,51.6,-1.1,24.30,ENE,64,3.0,4.0,11,0.00,,,0.00,WeatherTracker,2013-05-03 16:00:00,
2013-05-03 09:10:00,52.9,-0.2,24.30,ESE,119,4.0,0.0,11,0.00,,,0.00,WeatherTracker,2013-05-03 16:10:00,
2013-05-03 09:15:00,53.1,0.0,24.30,NE,48,0.0,0.0,11,0.00,,,0.00,WeatherTracker,2013-05-03 16:15:00,
2013-05-03 09:20:00,53.8,-1.5,24.30,NW,320,0.0,0.0,10,0.00,,,0.00,WeatherTracker,2013-05-03 16:20:00,
2013-05-03 09:25:00,54.3,-1.1,24.30,South,174,0.0,0.0,10,0.00,,,0.00,WeatherTracker,2013-05-03 16:25:00,
2013-05-03 09:30:00,55.0,-0.5,24.30,South,173,0.0,6.0,10,0.00,,,0.00,WeatherTracker,2013-05-03 16:30:00,
2013-05-03 09:40:00,56.1,0.3,24.30,South,177,0.0,2.0,10,0.00,,,0.00,WeatherTracker,2013-05-03 16:40:00,
2013-05-03 09:45:00,56.5,0.6,24.30,ESE,108,0.0,0.0,10,0.00,,,0.00,WeatherTracker,2013-05-03 16:45:00,
2013-05-03 09:50:00,57.0,4.9,24.30,South,176,4.0,5.0,12,0.00,,,0.00,WeatherTracker,2013-05-03 16:50:00,
2013-05-03 09:55:00,57.7,5.5,24.30,SSE,148,3.0,3.0,12,0.00,,,0.00,WeatherTracker,2013-05-03 16:55:00,
2013-05-03 10:05:00,57.7,5.5,24.30,East,97,0.0,0.0,12,0.00,,,0.00,WeatherTracker,2013-05-03 17:05:00,
2013-05-03 10:15:00,58.8,6.3,24.30,SE,144,2.0,0.0,12,0.00,,,0.00,WeatherTracker,2013-05-03 17:15:00,
2013-05-03 10:20:00,59.5,6.9,24.30,South,181,0.0,0.0,12,0.00,,,0.00,WeatherTracker,2013-05-03 17:20:00,
2013-05-03 10:30:00,60.6,7.8,24.30,South,172,3.0,5.0,12,0.00,,,0.00,WeatherTracker,2013-05-03 17:30:00,
2013-05-03 10:35:00,61.7,6.7,24.30,ESE,119,0.0,0.0,11,0.00,,,0.00,WeatherTracker,2013-05-03 17:35:00,
2013-05-03 10:40:00,62.2,7.1,24.30,NE,51,2.0,4.0,11,0.00,,,0.00,WeatherTracker,2013-05-03 17:40:00,
2013-05-03 10:45:00,62.4,7.2,24.30,NNW,327,0.0,0.0,11,0.00,,,0.00,WeatherTracker,2013-05-03 17:45:00,
2013-05-03 10:55:00,62.2,7.1,24.30,ESE,113,0.0,2.0,11,0.00,,,0.00,WeatherTracker,2013-05-03 17:55:00,
2013-05-03 11:00:00,63.0,7.7,24.27,NE,34,0.0,4.0,11,0.00,,,0.00,WeatherTracker,2013-05-03 18:00:00,
2013-05-03 11:05:00,63.3,7.9,24.27,ESE,116,0.0,3.0,11,0.00,,,0.00,WeatherTracker,2013-05-03 18:05:00,
2013-05-03 11:15:00,64.4,6.7,24.27,ESE,107,0.0,4.0,10,0.00,,,0.00,WeatherTracker,2013-05-03 18:15:00,
2013-05-03 11:25:00,64.8,6.9,24.27,SE,144,2.0,6.0,10,0.00,,,0.00,WeatherTracker,2013-05-03 18:25:00,
2013-05-03 11:30:00,65.7,7.6,24.27,ENE,57,0.0,4.0,10,0.00,,,0.00,WeatherTracker,2013-05-03 18:30:00,
2013-05-03 11:40:00,64.8,6.9,24.27,NNW,332,3.0,0.0,10,0.00,,,0.00,WeatherTracker,2013-05-03 18:40:00,
2013-05-03 11:45:00,64.2,8.6,24.27,ESE,111,0.0,3.0,11,0.00,,,0.00,WeatherTracker,2013-05-03 18:45:00,
2013-05-03 11:50:00,65.3,7.4,24.27,SW,222,0.0,3.0,10,0.00,,,0.00,WeatherTracker,2013-05-03 18:50:00,
2013-05-03 12:00:00,66.0,7.9,24.27,East,79,3.0,0.0,10,0.00,,,0.00,WeatherTracker,2013-05-03 19:00:00,
2013-05-03 12:05:00,66.6,8.3,24.27,East,81,0.0,0.0,10,0.00,,,0.00,WeatherTracker,2013-05-03 19:05:00,
2013-05-03 12:10:00,67.1,8.7,24.27,SSE,165,0.0,4.0,10,0.00,,,0.00,WeatherTracker,2013-05-03 19:10:00,
2013-05-03 12:15:00,67.6,9.1,24.27,ESE,112,0.0,0.0,10,0.00,,,0.00,WeatherTracker,2013-05-03 19:15:00,
2013-05-03 12:20:00,68.0,9.4,24.27,North,0,0.0,0.0,10,0.00,,,0.00,WeatherTracker,2013-05-03 19:20:00,
2013-05-03 12:25:00,67.5,9.0,24.27,NW,317,0.0,0.0,10,0.00,,,0.00,WeatherTracker,2013-05-03 19:25:00,
2013-05-03 12:30:00,67.3,8.9,24.24,SE,127,0.0,0.0,10,0.00,,,0.00,WeatherTracker,2013-05-03 19:30:00,
2013-05-03 12:40:00,68.0,9.4,24.24,North,357,0.0,3.0,10,0.00,,,0.00,WeatherTracker,2013-05-03 19:40:00,
2013-05-03 12:50:00,68.5,9.8,24.24,WNW,286,0.0,2.0,10,0.00,,,0.00,WeatherTracker,2013-05-03 19:50:00,
2013-05-03 13:00:00,68.4,9.7,24.24,SE,132,3.0,3.0,10,0.00,,,0.00,WeatherTracker,2013-05-03 20:00:00,
2013-05-03 13:10:00,68.5,9.8,24.24,NNW,332,2.0,3.0,10,0.00,,,0.00,WeatherTracker,2013-05-03 20:10:00,
2013-05-03 13:15:00,68.7,10.0,24.21,SE,129,3.0,0.0,10,0.00,,,0.00,WeatherTracker,2013-05-03 20:15:00,
2013-05-03 13:25:00,68.9,10.1,24.21,NE,34,0.0,3.0,10,0.00,,,0.00,WeatherTracker,2013-05-03 20:25:00,
2013-05-03 13:35:00,70.3,8.9,24.21,ENE,76,0.0,4.0,9,0.00,,,0.00,WeatherTracker,2013-05-03 20:35:00,
2013-05-03 13:45:00,70.3,8.9,24.21,ESE,108,0.0,0.0,9,0.00,,,0.00,WeatherTracker,2013-05-03 20:45:00,
2013-05-03 13:55:00,70.5,9.0,24.21,ESE,114,0.0,3.0,9,0.00,,,0.00,WeatherTracker,2013-05-03 20:55:00,
2013-05-03 14:00:00,70.5,9.0,24.21,SE,146,0.0,0.0,9,0.00,,,0.00,WeatherTracker,2013-05-03 21:00:00,
2013-05-03 14:10:00,70.2,8.7,24.21,South,181,0.0,0.0,9,0.00,,,0.00,WeatherTracker,2013-05-03 21:10:00,
2013-05-03 14:15:00,70.3,8.9,24.21,ENE,77,2.0,0.0,9,0.00,,,0.00,WeatherTracker,2013-05-03 21:15:00,
2013-05-03 14:20:00,70.2,8.7,24.21,ESE,113,0.0,3.0,9,0.00,,,0.00,WeatherTracker,2013-05-03 21:20:00,
2013-05-03 14:25:00,70.3,8.9,24.21,NE,43,0.0,0.0,9,0.00,,,0.00,WeatherTracker,2013-05-03 21:25:00,
2013-05-03 14:35:00,71.2,9.5,24.19,NW,324,0.0,0.0,9,0.00,,,0.00,WeatherTracker,2013-05-03 21:35:00,
2013-05-03 14:45:00,70.7,9.1,24.19,WSW,244,0.0,0.0,9,0.00,,,0.00,WeatherTracker,2013-05-03 21:45:00,
2013-05-03 14:56:00,71.4,9.7,24.19,ESE,103,4.0,4.0,9,0.00,,,0.00,WeatherTracker,2013-05-03 21:56:00,
2013-05-03 15:05:00,71.6,9.8,24.19,SE,137,3.0,4.0,9,0.00,,,0.00,WeatherTracker,2013-05-03 22:05:00,
2013-05-03 15:10:00,71.4,9.7,24.19,SE,146,0.0,0.0,9,0.00,,,0.00,WeatherTracker,2013-05-03 22:10:00,
2013-05-03 15:15:00,71.2,9.5,24.19,SE,141,2.0,0.0,9,0.00,,,0.00,WeatherTracker,2013-05-03 22:15:00,
2013-05-03 15:20:00,71.4,9.7,24.19,South,187,2.0,2.0,9,0.00,,,0.00,WeatherTracker,2013-05-03 22:20:00,
2013-05-03 15:30:00,70.9,9.3,24.19,SE,138,5.0,5.0,9,0.00,,,0.00,WeatherTracker,2013-05-03 22:30:00,
2013-05-03 15:35:00,70.5,9.0,24.19,SE,130,0.0,4.0,9,0.00,,,0.00,WeatherTracker,2013-05-03 22:35:00,
2013-05-03 15:45:00,70.2,8.7,24.16,SE,146,0.0,3.0,9,0.00,,,0.00,WeatherTracker,2013-05-03 22:45:00,
2013-05-03 15:55:00,69.6,10.7,24.16,South,185,0.0,0.0,10,0.00,,,0.00,WeatherTracker,2013-05-03 22:55:00,
2013-05-03 16:05:00,69.3,10.4,24.19,SE,128,0.0,0.0,10,0.00,,,0.00,WeatherTracker,2013-05-03 23:05:00,
2013-05-03 16:10:00,68.9,10.1,24.19,SSE,154,0.0,3.0,10,0.00,,,0.00,WeatherTracker,2013-05-03 23:10:00,
2013-05-03 16:20:00,68.7,10.0,24.16,SE,126,2.0,0.0,10,0.00,,,0.00,WeatherTracker,2013-05-03 23:20:00,
2013-05-03 16:25:00,68.4,9.7,24.16,SSW,197,3.0,4.0,10,0.00,,,0.00,WeatherTracker,2013-05-03 23:25:00,
2013-05-03 16:30:00,68.2,9.6,24.16,SSE,152,3.0,3.0,10,0.00,,,0.00,WeatherTracker,2013-05-03 23:30:00,
2013-05-03 16:40:00,67.6,9.1,24.16,ESE,121,3.0,4.0,10,0.00,,,0.00,WeatherTracker,2013-05-03 23:40:00,
2013-05-03 16:45:00,67.6,9.1,24.16,ESE,122,2.0,4.0,10,0.00,,,0.00,WeatherTracker,2013-05-03 23:45:00,
2013-05-03 16:55:00,67.1,8.7,24.16,South,175,0.0,0.0,10,0.00,,,0.00,WeatherTracker,2013-05-03 23:55:00,
2013-05-03 17:05:00,66.9,8.6,24.16,NE,40,0.0,2.0,10,0.00,,,0.00,WeatherTracker,2013-05-04 00:05:00,
2013-05-03 17:15:00,66.7,8.5,24.16,North,357,0.0,0.0,10,0.00,,,0.00,WeatherTracker,2013-05-04 00:15:00,
2013-05-03 17:25:00,66.4,8.2,24.16,ESE,106,0.0,6.0,10,0.00,,,0.00,WeatherTracker,2013-05-04 00:25:00,
2013-05-03 17:30:00,66.2,8.0,24.16,East,96,0.0,3.0,10,0.00,,,0.00,WeatherTracker,2013-05-04 00:30:00,
2013-05-03 17:40:00,65.8,7.8,24.16,East,95,0.0,0.0,10,0.00,,,0.00,WeatherTracker,2013-05-04 00:40:00,
2013-05-03 17:45:00,65.5,7.5,24.16,ESE,114,0.0,2.0,10,0.00,,,0.00,WeatherTracker,2013-05-04 00:45:00,
2013-05-03 17:50:00,65.5,7.5,24.16,NE,55,0.0,0.0,10,0.00,,,0.00,WeatherTracker,2013-05-04 00:50:00,
2013-05-03 17:55:00,65.1,7.2,24.16,ESE,113,3.0,3.0,10,0.00,,,0.00,WeatherTracker,2013-05-04 00:55:00,
2013-05-03 18:05:00,64.8,6.9,24.16,ENE,77,0.0,0.0,10,0.00,,,0.00,WeatherTracker,2013-05-04 01:05:00,
2013-05-03 18:10:00,64.4,6.7,24.16,ESE,111,0.0,3.0,10,0.00,,,0.00,WeatherTracker,2013-05-04 01:10:00,
2013-05-03 18:15:00,64.2,8.6,24.16,SE,125,0.0,0.0,11,0.00,,,0.00,WeatherTracker,2013-05-04 01:15:00,
2013-05-03 18:25:00,63.9,8.3,24.16,East,99,0.0,0.0,11,0.00,,,0.00,WeatherTracker,2013-05-04 01:25:00,
2013-05-03 18:30:00,63.5,8.1,24.16,ESE,106,0.0,0.0,11,0.00,,,0.00,WeatherTracker,2013-05-04 01:30:00,
2013-05-03 18:40:00,63.0,7.7,24.16,SE,145,0.0,0.0,11,0.00,,,0.00,WeatherTracker,2013-05-04 01:40:00,
2013-05-03 18:50:00,61.9,6.8,24.16,SE,145,0.0,0.0,11,0.00,,,0.00,WeatherTracker,2013-05-04 01:50:00,
2013-05-03 18:55:00,61.5,6.5,24.16,SE,145,0.0,0.0,11,0.00,,,0.00,WeatherTracker,2013-05-04 01:55:00,
2013-05-03 19:00:00,60.8,6.0,24.16,SE,145,0.0,0.0,11,0.00,,,0.00,WeatherTracker,2013-05-04 02:00:00,
2013-05-03 19:10:00,60.1,7.3,24.16,SE,145,0.0,0.0,12,0.00,,,0.00,WeatherTracker,2013-05-04 02:10:00,
2013-05-03 19:15:00,59.7,0.8,24.16,SE,145,0.0,0.0,9,0.00,,,0.00,WeatherTracker,2013-05-04 02:15:00,
2013-05-03 19:20:00,59.4,0.6,24.16,SE,145,0.0,0.0,9,0.00,,,0.00,WeatherTracker,2013-05-04 02:20:00,
2013-05-03 19:25:00,58.8,0.1,24.16,SE,145,0.0,0.0,9,0.00,,,0.00,WeatherTracker,2013-05-04 02:25:00,
2013-05-03 19:35:00,58.1,-0.4,24.16,SE,145,0.0,0.0,9,0.00,,,0.00,WeatherTracker,2013-05-04 02:35:00,
2013-05-03 19:40:00,57.6,-0.8,24.16,SE,145,0.0,0.0,9,0.00,,,0.00,WeatherTracker,2013-05-04 02:40:00,
2013-05-03 19:50:00,56.7,0.7,24.16,SE,144,0.0,0.0,10,0.00,,,0.00,WeatherTracker,2013-05-04 02:50:00,
2013-05-03 20:00:00,55.9,0.2,24.16,SE,144,0.0,0.0,10,0.00,,,0.00,WeatherTracker,2013-05-04 03:00:00,
2013-05-03 20:10:00,55.8,0.0,24.16,ENE,75,0.0,0.0,10,0.00,,,0.00,WeatherTracker,2013-05-04 03:10:00,
2013-05-03 20:20:00,55.6,-0.1,24.19,ESE,108,0.0,0.0,10,0.00,,,0.00,WeatherTracker,2013-05-04 03:20:00,
2013-05-03 20:25:00,55.4,-0.2,24.19,ESE,102,0.0,0.0,10,0.00,,,0.00,WeatherTracker,2013-05-04 03:25:00,
2013-05-03 20:30:00,55.4,-0.2,24.19,ESE,102,0.0,0.0,10,0.00,,,0.00,WeatherTracker,2013-05-04 03:30:00,
2013-05-03 20:35:00,55.2,-0.4,24.19,ESE,102,0.0,0.0,10,0.00,,,0.00,WeatherTracker,2013-05-04 03:35:00,
2013-05-03 20:45:00,54.7,-0.8,24.19,East,83,0.0,0.0,10,0.00,,,0.00,WeatherTracker,2013-05-04 03:45:00,
2013-05-03 20:55:00,54.1,-1.2,24.19,East,83,0.0,0.0,10,0.00,,,0.00,WeatherTracker,2013-05-04 03:55:00,
2013-05-03 21:00:00,54.0,-1.3,24.19,East,83,0.0,0.0,10,0.00,,,0.00,WeatherTracker,2013-05-04 04:00:00,
2013-05-03 21:05:00,53.8,-1.5,24.19,East,83,0.0,0.0,10,0.00,,,0.00,WeatherTracker,2013-05-04 04:05:00,
2013-05-03 21:10:00,53.8,-1.5,24.19,ENE,75,0.0,0.0,10,0.00,,,0.00,WeatherTracker,2013-05-04 04:10:00,
2013-05-03 21:15:00,54.0,-1.3,24.19,NE,48,0.0,0.0,10,0.00,,,0.00,WeatherTracker,2013-05-04 04:15:00,
2013-05-03 21:20:00,54.0,-1.3,24.19,ESE,105,0.0,0.0,10,0.00,,,0.00,WeatherTracker,2013-05-04 04:20:00,
2013-05-03 21:25:00,54.0,-1.3,24.19,ESE,114,0.0,0.0,10,0.00,,,0.00,WeatherTracker,2013-05-04 04:25:00,
2013-05-03 21:35:00,53.6,-1.6,24.19,ENE,58,0.0,0.0,10,0.00,,,0.00,WeatherTracker,2013-05-04 04:35:00,
2013-05-03 21:40:00,53.4,0.3,24.19,ENE,58,0.0,0.0,11,0.00,,,0.00,WeatherTracker,2013-05-04 04:40:00,
2013-05-03 21:45:00,52.9,-0.2,24.19,ENE,58,0.0,0.0,11,0.00,,,0.00,WeatherTracker,2013-05-04 04:45:00,
2013-05-03 21:55:00,52.0,-0.9,24.19,ENE,58,0.0,0.0,11,0.00,,,0.00,WeatherTracker,2013-05-04 04:55:00,
2013-05-03 22:05:00,51.1,-1.6,24.19,ENE,58,0.0,0.0,11,0.00,,,0.00,WeatherTracker,2013-05-04 05:05:00,
2013-05-03 22:15:00,50.0,-2.4,24.19,ENE,58,0.0,0.0,11,0.00,,,0.00,WeatherTracker,2013-05-04 05:15:00,
2013-05-03 22:20:00,49.8,-2.5,24.19,ENE,58,0.0,0.0,11,0.00,,,0.00,WeatherTracker,2013-05-04 05:20:00,
2013-05-03 22:30:00,49.8,-2.5,24.19,ENE,58,0.0,0.0,11,0.00,,,0.00,WeatherTracker,2013-05-04 05:30:00,
2013-05-03 22:35:00,49.3,-3.0,24.19,ENE,58,0.0,0.0,11,0.00,,,0.00,WeatherTracker,2013-05-04 05:35:00,
2013-05-03 22:45:00,48.7,-3.4,24.19,ENE,58,0.0,0.0,11,0.00,,,0.00,WeatherTracker,2013-05-04 05:45:00,
2013-05-03 22:55:00,48.4,-3.7,24.19,ENE,58,0.0,0.0,11,0.00,,,0.00,WeatherTracker,2013-05-04 05:55:00,
2013-05-03 23:05:00,48.0,-2.1,24.16,ENE,58,0.0,0.0,12,0.00,,,0.00,WeatherTracker,2013-05-04 06:05:00,
2013-05-03 23:15:00,47.5,-2.6,24.16,ENE,58,0.0,0.0,12,0.00,,,0.00,WeatherTracker,2013-05-04 06:15:00,
2013-05-03 23:20:00,47.3,-2.7,24.16,ENE,58,0.0,0.0,12,0.00,,,0.00,WeatherTracker,2013-05-04 06:20:00,
2013-05-03 23:30:00,47.3,-2.7,24.19,ENE,68,0.0,0.0,12,0.00,,,0.00,WeatherTracker,2013-05-04 06:30:00,
2013-05-03 23:35:00,46.8,-3.1,24.19,SE,129,0.0,0.0,12,0.00,,,0.00,WeatherTracker,2013-05-04 06:35:00,
2013-05-03 23:40:00,46.0,-3.7,24.19,SE,129,0.0,0.0,12,0.00,,,0.00,WeatherTracker,2013-05-04 06:40:00,
2013-05-03 23:45:00,45.5,-4.1,24.19,SE,129,0.0,0.0,12,0.00,,,0.00,WeatherTracker,2013-05-04 06:45:00,
2013-05-03 23:55:00,45.0,-4.5,24.19,SE,130,0.0,0.0,12,0.00,,,0.00,WeatherTracker,2013-05-04 06:55:00,